Impacts METAR Board
IDs:

KSTL - St Louis/Lambert Int, MO, US

Updated at: 2100 UTC 06 Dec 2019
Potential Impact None Slight Moderate High
Time 06/09Z 06/10Z 06/11Z 06/12Z 06/13Z 06/14Z 06/15Z 06/16Z 06/17Z 06/18Z 06/19Z 06/20Z 06/21Z
Temp48 47 46 49 47 43 43 41 41 41 43 43 45
Dewpt38 38 38 38 37 35 34 32 33 32 30 31 32
Altim30.00 30.00 30.02 30.05 30.10 30.16 30.22 30.25 30.26 30.27 30.27 30.28 30.30
VIS10 9 9 10 10 10 8 8 7 9 10 10 10
CIG85 90 150 110 110 250 15 12 13 18 24 -- 30
CoverOVCOVCOVCOVCBKNBKNOVCOVCOVCOVCOVCSCTBKN
FltCatVFRVFRVFRVFRVFRVFRMVFRMVFRMVFRMVFRMVFRVFRMVFR
WX--------------------------
WDir0003203603603603601010360340340
WSpd0 0 0 7 15 17 18 12 12 9 11 12 14
WGst-- -- -- -- -- -- 23 -- -- -- -- -- --
Raw hourly METARs
KSTL 060851Z 00000KT 10SM BKN085 OVC130 09/03 A3000 RMK AO2 SLP160 T00890033 53000 $
KSTL 060951Z 00000KT 9SM BKN090 OVC130 09/03 A3000 RMK AO2 SLP160 T00830033 $
KSTL 061051Z 00000KT 9SM SCT090 BKN150 OVC250 08/04 A3002 RMK AO2 SLP167 T00780033 $
KSTL 061151Z COR 32007KT 10SM SCT085 BKN110 OVC250 09/03 A3005 RMK AO2 SLP177 T00940033 10106 20078 53017 $
KSTL 061251Z 36015KT 10SM FEW085 BKN110 BKN250 08/03 A3010 RMK AO2 SLP194 T00830028 $
KSTL 061351Z 36017KT 10SM FEW015 SCT110 BKN250 06/02 A3016 RMK AO2 SLP213 T00610017 $
KSTL 061451Z 36018G23KT 8SM BKN015 OVC110 06/01 A3022 RMK AO2 SLP235 T00610011 53054 $
KSTL 061551Z 36012KT 8SM OVC012 05/00 A3025 RMK AO2 SLP246 T00500000 $
KSTL 061651Z 01012KT 7SM OVC013 05/01 A3026 RMK AO2 SLP251 T00500006 $
KSTL 061751Z COR 01009KT 9SM OVC018 05/00 A3027 RMK AO2 SLP255 T00500000 10094 20050 51018 $
KSTL 061851Z 36011KT 10SM OVC024 06/M01 A3027 RMK AO2 SLP253 T00611011 $
KSTL 061951Z 34012KT 10SM SCT026 06/M01 A3028 RMK AO2 SLP256 T00611006 $
KSTL 062051Z 34014KT 10SM BKN030 07/00 A3030 RMK AO2 SLP264 T00720000 53010 $



Page loaded:  21:06 UTC  |   01:06 PM Pacific  |   02:06 PM Mountain  |   03:06 PM Central  |   04:06 PM Eastern

 

ADVISORIES

FORECASTS

FORECASTS

OBSERVATIONS

USER TOOLS

ABOUT US